Time;durP1;ratioP1;P1;durP2;ratioP2;P2;SDS_P1;SDS_P2;PMS_P1;PMS_P2;Temp;Humidity;BMP_temperature;BMP_pressure;BME280_temperature;BME280_humidity;BME280_pressure;Samples;Min_cycle;Max_cycle;Signal;HPM_P1;HPM_P2
2022/07/01 00:00:33;;;;;;;9.77;1.67;;;20.70;99.90;;;;;;4951071;28;20197;-71
2022/07/01 00:02:59;;;;;;;2.00;1.40;;;20.70;99.90;;;;;;4961268;28;20198;-71
2022/07/01 00:05:25;;;;;;;2.00;1.30;;;20.70;99.90;;;;;;4952441;28;20228;-70
2022/07/01 00:07:52;;;;;;;2.30;1.60;;;20.70;99.90;;;;;;4966173;28;20529;-71
2022/07/01 00:10:19;;;;;;;2.30;1.50;;;20.70;99.90;;;;;;4957832;28;20219;-70
2022/07/01 00:12:46;;;;;;;1.53;1.43;;;20.70;99.90;;;;;;4950401;28;20249;-71
2022/07/01 00:15:13;;;;;;;1.90;1.50;;;20.60;99.90;;;;;;4958771;28;20248;-69
2022/07/01 00:17:40;;;;;;;2.13;1.40;;;20.60;99.90;;;;;;4956478;28;20265;-69
2022/07/01 00:20:07;;;;;;;3.80;1.60;;;20.60;99.90;;;;;;4955638;28;20260;-72
2022/07/01 00:22:34;;;;;;;1.30;1.20;;;20.60;99.90;;;;;;4971251;28;20699;-71
2022/07/01 00:25:02;;;;;;;3.37;1.67;;;20.60;99.90;;;;;;4935914;28;20258;-70
2022/07/01 00:27:28;;;;;;;4.60;1.50;;;20.60;99.90;;;;;;4956850;28;20183;-71
2022/07/01 00:29:55;;;;;;;3.20;1.40;;;20.60;99.90;;;;;;4955618;28;20195;-69
2022/07/01 00:32:23;;;;;;;1.50;1.30;;;20.70;99.90;;;;;;4959109;28;20190;-70
2022/07/01 00:34:50;;;;;;;3.20;1.40;;;20.70;99.90;;;;;;4955093;28;20187;-70
2022/07/01 00:37:16;;;;;;;2.57;1.40;;;20.70;99.90;;;;;;4966587;28;20195;-70
2022/07/01 00:39:44;;;;;;;2.60;1.50;;;20.70;99.90;;;;;;4951769;28;20686;-70
2022/07/01 00:42:10;;;;;;;2.47;1.40;;;20.70;99.90;;;;;;4947926;28;20242;-72
2022/07/01 00:44:37;;;;;;;3.30;1.53;;;20.70;99.90;;;;;;4931544;29;20218;-70
2022/07/01 00:47:09;;;;;;;2.20;1.50;;;20.70;99.90;;;;;;4956820;28;20568;-70
2022/07/01 00:49:36;;;;;;;3.03;1.43;;;20.70;99.90;;;;;;4954381;28;20190;-70
2022/07/01 00:52:05;;;;;;;1.73;1.40;;;20.70;99.90;;;;;;4952627;28;20265;-70
2022/07/01 00:54:37;;;;;;;2.17;1.50;;;20.70;99.90;;;;;;4955823;28;20198;-71
2022/07/01 00:57:09;;;;;;;1.90;1.27;;;20.70;99.90;;;;;;4957626;28;20277;-70
2022/07/01 00:59:38;;;;;;;4.13;1.50;;;20.70;99.90;;;;;;4954080;28;20190;-69
2022/07/01 01:02:07;;;;;;;1.57;1.20;;;20.70;99.90;;;;;;4958828;28;20198;-69
2022/07/01 01:04:34;;;;;;;4.90;1.57;;;20.70;99.90;;;;;;4955233;28;20190;-71
2022/07/01 01:07:04;;;;;;;1.73;1.37;;;20.70;99.90;;;;;;4957158;28;20301;-70
2022/07/01 01:09:31;;;;;;;2.80;1.50;;;20.70;99.90;;;;;;4960353;28;20199;-71
2022/07/01 01:12:00;;;;;;;2.10;1.43;;;20.70;99.90;;;;;;4973403;28;20564;-70
2022/07/01 01:14:26;;;;;;;1.67;1.17;;;20.80;99.90;;;;;;4947265;29;20206;-70
2022/07/01 01:16:53;;;;;;;3.17;1.60;;;20.80;99.90;;;;;;4957357;28;20947;-71
2022/07/01 01:19:19;;;;;;;2.63;1.40;;;20.70;99.90;;;;;;4959256;28;20959;-71
2022/07/01 01:21:46;;;;;;;1.83;1.50;;;20.70;99.90;;;;;;4961418;28;20186;-71
2022/07/01 01:24:13;;;;;;;1.50;1.40;;;20.80;99.90;;;;;;4950739;28;20191;-71
2022/07/01 01:26:39;;;;;;;2.80;1.50;;;20.80;99.90;;;;;;4954688;28;20190;-71
2022/07/01 01:29:07;;;;;;;2.00;1.43;;;20.80;99.90;;;;;;4958758;28;20288;-72
2022/07/01 01:31:33;;;;;;;2.47;1.50;;;20.80;99.90;;;;;;4964624;28;20210;-73
2022/07/01 01:34:01;;;;;;;1.70;1.40;;;20.70;99.90;;;;;;4943587;28;20198;-70
2022/07/01 01:36:28;;;;;;;1.60;1.40;;;20.70;99.90;;;;;;4951042;28;20275;-70
2022/07/01 01:39:00;;;;;;;1.40;1.30;;;20.70;99.90;;;;;;4949024;28;20194;-72
2022/07/01 01:41:26;;;;;;;2.50;1.50;;;20.70;99.90;;;;;;4953325;28;20191;-69
2022/07/01 01:43:53;;;;;;;2.63;1.40;;;20.70;99.90;;;;;;4970081;28;20218;-70
2022/07/01 01:46:19;;;;;;;1.40;1.30;;;20.60;99.90;;;;;;4948454;28;20265;-71
2022/07/01 01:48:46;;;;;;;3.47;1.77;;;20.70;99.90;;;;;;4959033;28;20202;-69
2022/07/01 01:51:12;;;;;;;2.70;1.50;;;20.70;99.90;;;;;;4975007;28;20218;-71
2022/07/01 01:53:39;;;;;;;2.13;1.40;;;20.70;99.90;;;;;;4954305;28;20232;-69
2022/07/01 01:56:06;;;;;;;1.63;1.30;;;20.60;99.90;;;;;;4955431;28;20190;-70
2022/07/01 01:58:32;;;;;;;2.33;1.40;;;20.50;99.90;;;;;;4950861;28;20219;-69
2022/07/01 02:00:59;;;;;;;1.50;1.40;;;20.50;99.90;;;;;;4965244;28;20202;-70
2022/07/01 02:03:25;;;;;;;1.90;1.57;;;20.60;99.90;;;;;;4947699;28;20214;-71
2022/07/01 02:05:52;;;;;;;4.00;1.50;;;20.50;99.90;;;;;;4958672;28;20194;-71
2022/07/01 02:08:18;;;;;;;2.17;1.60;;;20.50;99.90;;;;;;4963542;28;20225;-71
2022/07/01 02:10:44;;;;;;;1.67;1.20;;;20.40;99.90;;;;;;4947956;28;20238;-70
2022/07/01 02:13:11;;;;;;;1.73;1.43;;;20.40;99.90;;;;;;4951159;28;20203;-71
2022/07/01 02:15:39;;;;;;;2.90;1.50;;;20.50;99.90;;;;;;4933891;29;20636;-72
2022/07/01 02:18:05;;;;;;;2.60;1.27;;;20.50;99.90;;;;;;4957764;28;20199;-70
2022/07/01 02:20:33;;;;;;;1.97;1.53;;;20.40;99.90;;;;;;4965550;28;20183;-70
2022/07/01 02:23:00;;;;;;;2.73;1.60;;;20.40;99.90;;;;;;4961058;28;20187;-69
2022/07/01 02:25:26;;;;;;;2.37;1.83;;;20.30;99.90;;;;;;4959268;28;20182;-70
2022/07/01 02:27:52;;;;;;;2.87;1.50;;;20.30;99.90;;;;;;4961253;28;20277;-71
2022/07/01 02:30:18;;;;;;;1.80;1.37;;;20.30;99.90;;;;;;4977284;28;20217;-71
2022/07/01 02:32:45;;;;;;;3.43;1.63;;;20.30;99.90;;;;;;4959384;28;20958;-70
2022/07/01 02:35:13;;;;;;;1.50;1.40;;;20.30;99.90;;;;;;4952626;29;20187;-70
2022/07/01 02:37:40;;;;;;;2.63;1.50;;;20.30;99.90;;;;;;4954872;28;20187;-70
2022/07/01 02:40:09;;;;;;;2.23;1.40;;;20.30;99.90;;;;;;4979349;28;20182;-71
2022/07/01 02:42:35;;;;;;;1.83;1.50;;;20.40;99.90;;;;;;4975619;28;20590;-71
2022/07/01 02:45:08;;;;;;;3.60;1.50;;;20.40;99.90;;;;;;4961086;28;20225;-70
2022/07/01 02:47:37;;;;;;;4.90;1.50;;;20.40;99.90;;;;;;4956401;28;20194;-70
2022/07/01 02:50:10;;;;;;;1.87;1.60;;;20.40;99.90;;;;;;4960330;28;20194;-71
2022/07/01 02:52:39;;;;;;;1.93;1.80;;;20.40;99.90;;;;;;4961715;28;20197;-71
2022/07/01 02:55:09;;;;;;;2.53;1.33;;;20.30;99.90;;;;;;4964534;28;20194;-69
2022/07/01 02:57:37;;;;;;;2.07;1.63;;;20.30;99.90;;;;;;4970976;28;20187;-71
2022/07/01 03:00:10;;;;;;;3.50;1.63;;;20.30;99.90;;;;;;4967269;28;20250;-71
2022/07/01 03:02:36;;;;;;;1.93;1.47;;;20.20;99.90;;;;;;4963312;28;20204;-71
2022/07/01 03:05:04;;;;;;;1.90;1.57;;;20.20;99.90;;;;;;4946411;28;20196;-69
2022/07/01 03:07:30;;;;;;;2.17;1.63;;;20.20;99.90;;;;;;4975366;28;20183;-70
2022/07/01 03:09:57;;;;;;;2.97;1.90;;;20.20;99.90;;;;;;4976381;28;20249;-71
2022/07/01 03:12:25;;;;;;;4.93;1.67;;;20.30;99.90;;;;;;4980000;28;20773;-72
2022/07/01 03:15:03;;;;;;;2.57;1.50;;;20.30;99.90;;;;;;4956950;28;20194;-71
2022/07/01 03:17:32;;;;;;;1.50;1.40;;;20.30;99.90;;;;;;4974963;28;20194;-71
2022/07/01 03:19:59;;;;;;;2.70;1.57;;;20.30;99.90;;;;;;4960538;28;20193;-71
2022/07/01 03:22:29;;;;;;;4.70;1.77;;;20.30;99.90;;;;;;4951267;28;20183;-71
2022/07/01 03:24:58;;;;;;;3.30;1.50;;;20.30;99.90;;;;;;4959542;28;20188;-69
2022/07/01 03:27:26;;;;;;;1.83;1.43;;;20.30;99.90;;;;;;4957972;28;20191;-70
2022/07/01 03:29:53;;;;;;;2.10;1.40;;;20.30;99.90;;;;;;4951067;28;20290;-72
2022/07/01 03:32:19;;;;;;;3.10;1.50;;;20.40;99.90;;;;;;4964200;28;20579;-72
2022/07/01 03:34:49;;;;;;;1.97;1.60;;;20.40;99.90;;;;;;4951938;28;20213;-69
2022/07/01 03:37:18;;;;;;;2.60;1.57;;;20.40;99.90;;;;;;4952310;28;20662;-69
2022/07/01 03:39:47;;;;;;;2.13;1.50;;;20.40;99.90;;;;;;4960180;28;20201;-70
2022/07/01 03:42:14;;;;;;;2.10;1.53;;;20.40;99.90;;;;;;4971073;28;20194;-70
2022/07/01 03:44:41;;;;;;;2.03;1.40;;;20.40;99.90;;;;;;4955093;28;20186;-70
2022/07/01 03:47:07;;;;;;;3.77;1.70;;;20.50;99.90;;;;;;4959966;28;20599;-70
2022/07/01 03:49:35;;;;;;;3.23;1.33;;;20.40;99.90;;;;;;4966715;28;20404;-71
2022/07/01 03:52:03;;;;;;;2.77;1.70;;;20.50;99.90;;;;;;4968566;28;20312;-70
2022/07/01 03:54:32;;;;;;;3.67;1.50;;;20.50;99.90;;;;;;4974421;28;20214;-71
2022/07/01 03:57:09;;;;;;;2.43;1.40;;;20.50;99.90;;;;;;4960958;28;20202;-71
2022/07/01 03:59:39;;;;;;;2.63;1.53;;;20.50;99.90;;;;;;4960649;28;20194;-71
2022/07/01 04:02:07;;;;;;;3.77;1.50;;;20.50;99.90;;;;;;4950166;28;20302;-71
2022/07/01 04:04:34;;;;;;;2.70;1.50;;;20.60;99.90;;;;;;4954455;28;20220;-71
2022/07/01 04:07:06;;;;;;;3.40;1.60;;;20.60;99.90;;;;;;4955669;28;20701;-70
2022/07/01 04:09:32;;;;;;;2.30;1.70;;;20.70;99.90;;;;;;4956953;28;20230;-71
2022/07/01 04:11:59;;;;;;;1.43;1.33;;;20.70;99.90;;;;;;4965162;28;20214;-69
2022/07/01 04:14:29;;;;;;;2.27;1.60;;;20.80;99.90;;;;;;4964186;28;20233;-72
2022/07/01 04:16:56;;;;;;;2.40;1.60;;;20.80;99.90;;;;;;4949205;28;20281;-71
2022/07/01 04:19:24;;;;;;;1.60;1.40;;;20.90;99.90;;;;;;4970165;28;20201;-71
2022/07/01 04:24:35;;;;;;;3.33;1.33;;;21.00;99.90;;;;;;4951393;28;20191;-71
2022/07/01 04:27:02;;;;;;;1.70;1.50;;;21.10;99.90;;;;;;4973311;28;20191;-69
2022/07/01 04:29:31;;;;;;;2.00;1.50;;;21.20;99.90;;;;;;4947723;28;20203;-70
2022/07/01 04:31:58;;;;;;;3.30;1.40;;;21.20;99.90;;;;;;4951260;28;20210;-71
2022/07/01 04:34:25;;;;;;;1.60;1.30;;;21.30;99.90;;;;;;4954502;28;20205;-70
2022/07/01 04:36:52;;;;;;;1.37;1.23;;;21.40;99.90;;;;;;4952678;28;20190;-71
2022/07/01 04:39:19;;;;;;;1.40;1.30;;;21.50;99.90;;;;;;4958915;28;20194;-70
2022/07/01 04:42:00;;;;;;;1.40;1.30;;;21.60;99.90;;;;;;4946528;28;20202;-71
2022/07/01 04:44:36;;;;;;;1.53;1.43;;;21.70;99.90;;;;;;4947286;28;20249;-71
2022/07/01 04:47:04;;;;;;;1.70;1.60;;;21.80;99.90;;;;;;4972020;28;20240;-71
2022/07/01 04:49:31;;;;;;;2.13;1.40;;;21.80;99.90;;;;;;4953525;28;20186;-70
2022/07/01 04:51:59;;;;;;;1.35;1.25;;;21.90;99.90;;;;;;4966531;28;20269;-70
2022/07/01 04:54:26;;;;;;;1.43;1.33;;;22.00;99.90;;;;;;4953931;28;20234;-70
2022/07/01 04:56:52;;;;;;;2.40;1.27;;;22.00;99.90;;;;;;4948978;28;20266;-69
2022/07/01 04:59:19;;;;;;;1.80;1.47;;;22.10;99.90;;;;;;4969902;28;20233;-72
2022/07/01 05:01:49;;;;;;;2.10;1.50;;;22.10;99.90;;;;;;4967444;28;20225;-71
2022/07/01 05:04:17;;;;;;;2.47;1.33;;;22.20;99.90;;;;;;4951539;28;20519;-70
2022/07/01 05:06:45;;;;;;;1.83;1.33;;;22.20;99.90;;;;;;4948198;28;20509;-71
2022/07/01 05:09:12;;;;;;;1.90;1.50;;;22.30;99.90;;;;;;4956436;28;20278;-72
2022/07/01 05:11:39;;;;;;;1.60;1.27;;;22.30;99.90;;;;;;4959080;28;20241;-72
2022/07/01 05:14:06;;;;;;;3.73;1.40;;;22.40;99.90;;;;;;4979372;28;20207;-70
2022/07/01 05:16:33;;;;;;;1.60;1.40;;;22.50;99.90;;;;;;4950680;28;20206;-70
2022/07/01 05:21:59;;;;;;;3.10;1.17;;;22.60;99.90;;;;;;4950322;28;20198;-70
2022/07/01 05:24:30;;;;;;;4.53;1.63;;;22.70;99.90;;;;;;4949771;28;20190;-72
2022/07/01 05:26:58;;;;;;;2.42;1.23;;;22.80;99.90;;;;;;4958937;28;20194;-72
2022/07/01 05:29:26;;;;;;;1.65;1.40;;;22.90;99.90;;;;;;4976137;28;20214;-70
2022/07/01 05:31:53;;;;;;;1.48;1.10;;;22.90;99.90;;;;;;4967767;28;20331;-70
2022/07/01 05:34:20;;;;;;;1.30;1.20;;;22.90;99.90;;;;;;4952000;28;20246;-71
2022/07/01 05:36:47;;;;;;;1.77;1.30;;;23.00;99.90;;;;;;4946322;29;20246;-70
2022/07/01 05:39:13;;;;;;;3.28;1.20;;;23.10;99.90;;;;;;4949754;28;20192;-71
2022/07/01 05:41:40;;;;;;;2.17;1.23;;;23.10;99.90;;;;;;4957856;28;20278;-71
2022/07/01 05:44:07;;;;;;;1.35;1.25;;;23.20;99.90;;;;;;4971271;28;20194;-70
2022/07/01 05:46:33;;;;;;;5.20;1.40;;;23.30;99.90;;;;;;4940428;29;20190;-71
2022/07/01 05:49:00;;;;;;;1.23;1.10;;;23.30;99.90;;;;;;4937781;28;20226;-70
2022/07/01 05:51:26;;;;;;;2.65;1.60;;;23.40;99.90;;;;;;4951979;28;20210;-71
2022/07/01 05:53:53;;;;;;;1.63;1.30;;;23.50;99.90;;;;;;4940782;28;20936;-72
2022/07/01 05:56:20;;;;;;;1.20;1.10;;;23.60;99.90;;;;;;4952880;28;20183;-72
2022/07/01 05:58:46;;;;;;;2.80;1.40;;;23.60;99.90;;;;;;4970415;28;20693;-71
2022/07/01 06:01:13;;;;;;;3.75;1.48;;;23.70;99.90;;;;;;4960456;28;20190;-71
2022/07/01 06:03:39;;;;;;;2.38;1.38;;;23.70;99.90;;;;;;4953903;28;20286;-71
2022/07/01 06:06:06;;;;;;;2.88;1.30;;;23.80;99.90;;;;;;4965548;28;21039;-70
2022/07/01 06:08:34;;;;;;;1.20;1.10;;;23.90;99.90;;;;;;4948059;28;20420;-69
2022/07/01 06:11:03;;;;;;;4.90;1.60;;;24.10;99.90;;;;;;4948188;28;20210;-71
2022/07/01 06:13:30;;;;;;;3.63;1.35;;;24.20;99.90;;;;;;4949109;28;20202;-70
2022/07/01 06:15:59;;;;;;;1.95;1.48;;;24.50;99.90;;;;;;4951570;28;20203;-71
2022/07/01 06:18:26;;;;;;;4.28;1.30;;;24.60;99.90;;;;;;4956811;28;20551;-71
2022/07/01 06:20:53;;;;;;;2.90;1.30;;;24.60;99.90;;;;;;4954523;28;20193;-72
2022/07/01 06:23:19;;;;;;;2.22;1.40;;;24.70;99.90;;;;;;4965958;28;20611;-71
2022/07/01 06:25:46;;;;;;;2.63;1.30;;;24.90;99.90;;;;;;4957269;28;20270;-72
2022/07/01 06:28:14;;;;;;;2.00;1.50;;;24.90;99.90;;;;;;4968885;28;20217;-69
2022/07/01 06:30:43;;;;;;;4.50;1.50;;;25.00;99.90;;;;;;4953328;28;20206;-70
2022/07/01 06:33:10;;;;;;;4.50;1.70;;;25.10;99.90;;;;;;4955943;28;20735;-71
2022/07/01 06:35:37;;;;;;;1.73;1.30;;;25.20;99.90;;;;;;4935869;28;20310;-72
2022/07/01 06:38:03;;;;;;;2.08;1.40;;;25.30;99.90;;;;;;4974942;28;20194;-71
2022/07/01 06:40:30;;;;;;;3.90;1.73;;;25.50;99.90;;;;;;4973556;28;20237;-72
2022/07/01 06:42:59;;;;;;;4.03;1.50;;;25.50;99.90;;;;;;4954570;28;20199;-71
2022/07/01 06:45:26;;;;;;;1.65;1.40;;;25.60;99.90;;;;;;4953742;28;20209;-72
2022/07/01 06:47:52;;;;;;;2.53;1.40;;;25.70;99.90;;;;;;4948396;28;20214;-72
2022/07/01 06:50:18;;;;;;;5.18;1.50;;;25.70;99.90;;;;;;4964360;28;20189;-70
2022/07/01 06:52:45;;;;;;;6.78;1.60;;;25.80;99.90;;;;;;4947292;28;21197;-70
2022/07/01 06:55:11;;;;;;;4.45;1.70;;;25.90;99.90;;;;;;4946689;28;20203;-72
2022/07/01 06:57:37;;;;;;;1.48;1.38;;;26.00;99.90;;;;;;4951432;28;20657;-70
2022/07/01 07:00:05;;;;;;;8.10;1.60;;;26.00;99.90;;;;;;4947979;28;20195;-72
2022/07/01 07:02:32;;;;;;;4.30;1.80;;;26.20;99.90;;;;;;4943476;28;20191;-72
2022/07/01 07:04:58;;;;;;;5.55;1.77;;;26.20;99.90;;;;;;4953530;28;20193;-71
2022/07/01 07:07:25;;;;;;;4.60;1.60;;;26.30;99.90;;;;;;4946624;28;20226;-71
2022/07/01 07:09:51;;;;;;;3.83;1.98;;;26.30;99.90;;;;;;4958476;28;20186;-70
2022/07/01 07:12:17;;;;;;;3.90;1.85;;;26.40;99.90;;;;;;4951720;28;20635;-73
2022/07/01 07:14:44;;;;;;;3.88;1.70;;;26.50;99.90;;;;;;4963295;28;20183;-71
2022/07/01 07:17:11;;;;;;;2.28;1.80;;;26.60;99.90;;;;;;4964806;28;20207;-73
2022/07/01 07:19:39;;;;;;;3.80;1.77;;;26.70;99.90;;;;;;4945558;28;20182;-74
2022/07/01 07:22:06;;;;;;;3.08;1.73;;;26.80;99.90;;;;;;4947844;28;20203;-70
2022/07/01 07:24:32;;;;;;;5.45;2.22;;;26.90;99.90;;;;;;4963800;28;20358;-71
2022/07/01 07:26:59;;;;;;;4.88;2.15;;;26.90;99.90;;;;;;4951932;28;20194;-72
2022/07/01 07:29:27;;;;;;;5.63;2.05;;;27.00;99.90;;;;;;4949521;28;20202;-72
2022/07/01 07:31:53;;;;;;;6.97;2.15;;;27.10;99.90;;;;;;4953570;28;20293;-70
2022/07/01 07:34:20;;;;;;;2.20;1.70;;;27.20;99.90;;;;;;4973291;28;20187;-72
2022/07/01 07:36:46;;;;;;;4.30;1.90;;;27.30;99.90;;;;;;4975527;28;20273;-71
2022/07/01 07:39:12;;;;;;;3.25;1.80;;;27.40;99.90;;;;;;4952645;28;20586;-71
2022/07/01 07:41:39;;;;;;;5.35;1.92;;;27.40;99.90;;;;;;4955600;28;20190;-71
2022/07/01 07:44:06;;;;;;;4.22;2.28;;;27.50;99.90;;;;;;4955194;28;20193;-72
2022/07/01 07:46:32;;;;;;;3.67;1.90;;;27.60;99.90;;;;;;4972561;28;20205;-70
2022/07/01 07:48:58;;;;;;;2.63;1.67;;;27.70;99.90;;;;;;4963566;28;20194;-72
2022/07/01 07:51:26;;;;;;;5.25;2.10;;;27.70;99.90;;;;;;4964771;28;20223;-69
2022/07/01 07:53:52;;;;;;;3.67;2.00;;;27.80;99.90;;;;;;4967123;28;20191;-70
2022/07/01 07:56:19;;;;;;;6.78;2.00;;;27.90;99.90;;;;;;4950626;28;20296;-70
2022/07/01 07:58:45;;;;;;;3.03;1.90;;;27.90;99.90;;;;;;4950147;28;20501;-72
2022/07/01 08:01:11;;;;;;;3.53;1.85;;;27.90;99.90;;;;;;4948355;28;20187;-70
2022/07/01 08:03:37;;;;;;;3.67;1.77;;;28.00;99.90;;;;;;4969483;28;20190;-71
2022/07/01 08:06:04;;;;;;;2.45;1.80;;;28.10;99.90;;;;;;4949176;28;20199;-71
2022/07/01 08:08:31;;;;;;;3.83;1.90;;;28.20;99.90;;;;;;4953669;28;20544;-73
2022/07/01 08:10:58;;;;;;;6.30;1.83;;;28.30;99.90;;;;;;4972891;28;20281;-70
2022/07/01 08:13:24;;;;;;;3.42;1.60;;;28.30;99.90;;;;;;4964128;28;20686;-71
2022/07/01 08:15:50;;;;;;;4.20;1.90;;;28.40;99.90;;;;;;4946285;28;20230;-72
2022/07/01 08:18:18;;;;;;;4.80;1.70;;;28.50;99.90;;;;;;4924833;28;20194;-71
2022/07/01 08:20:46;;;;;;;3.67;1.80;;;28.60;99.90;;;;;;4946657;28;20619;-74
2022/07/01 08:23:13;;;;;;;8.65;1.80;;;28.70;99.90;;;;;;4966909;28;21996;-71
2022/07/01 08:25:40;;;;;;;3.83;2.15;;;28.80;99.90;;;;;;4941365;28;20198;-71
2022/07/01 08:28:06;;;;;;;4.65;2.10;;;28.90;99.90;;;;;;4939687;28;20206;-72
2022/07/01 08:30:33;;;;;;;2.33;1.80;;;28.90;99.90;;;;;;4975817;28;20202;-73
2022/07/01 08:33:00;;;;;;;5.28;2.17;;;28.90;99.90;;;;;;4955362;28;20564;-70
2022/07/01 08:35:26;;;;;;;3.35;1.70;;;29.10;99.90;;;;;;4952395;28;20195;-73
2022/07/01 08:37:52;;;;;;;9.32;2.03;;;29.20;99.90;;;;;;4949358;29;20199;-73
2022/07/01 08:40:19;;;;;;;7.13;1.98;;;29.20;99.90;;;;;;4963623;28;20179;-70
2022/07/01 08:42:46;;;;;;;2.63;2.13;;;29.30;99.90;;;;;;4950883;28;20513;-72
2022/07/01 08:45:12;;;;;;;8.50;1.98;;;29.50;99.90;;;;;;4948671;29;20187;-71
2022/07/01 08:47:57;;;;;;;5.57;1.92;;;29.50;99.90;;;;;;4964692;28;20183;-72
2022/07/01 08:50:25;;;;;;;4.78;2.00;;;29.60;99.90;;;;;;4959884;28;20313;-71
2022/07/01 08:52:53;;;;;;;4.40;1.80;;;29.60;99.90;;;;;;4945382;29;20183;-72
2022/07/01 08:55:23;;;;;;;4.35;2.20;;;29.60;99.90;;;;;;4944324;28;20190;-73
2022/07/01 08:57:50;;;;;;;4.55;1.58;;;29.70;99.90;;;;;;4943814;28;20191;-73
2022/07/01 09:00:17;;;;;;;5.65;1.80;;;29.80;99.90;;;;;;4943301;28;20191;-71
2022/07/01 09:02:57;;;;;;;6.32;1.80;;;29.90;99.90;;;;;;4960116;28;20198;-71
2022/07/01 09:05:26;;;;;;;4.22;1.80;;;30.00;99.90;;;;;;4933799;29;20587;-70
2022/07/01 09:08:01;;;;;;;4.68;1.80;;;30.10;99.90;;;;;;4944696;29;20187;-72
2022/07/01 09:10:35;;;;;;;5.65;2.10;;;30.20;99.90;;;;;;4957971;28;20552;-71
2022/07/01 09:13:12;;;;;;;3.53;1.85;;;30.20;99.90;;;;;;4942135;28;20207;-72
2022/07/01 09:15:41;;;;;;;1.70;1.40;;;30.30;99.90;;;;;;4941434;28;20202;-72
2022/07/01 09:18:17;;;;;;;3.70;1.88;;;30.40;99.90;;;;;;4944252;28;20624;-72
2022/07/01 09:20:49;;;;;;;1.90;1.42;;;30.60;99.90;;;;;;4944104;29;20199;-71
2022/07/01 09:23:18;;;;;;;5.80;1.70;;;30.70;99.90;;;;;;4957549;28;20218;-72
2022/07/01 09:25:50;;;;;;;3.97;1.63;;;30.70;99.80;;;;;;4958003;28;20194;-72
2022/07/01 09:28:28;;;;;;;3.40;1.73;;;30.80;99.70;;;;;;4948302;28;20210;-73
2022/07/01 09:30:59;;;;;;;4.57;1.50;;;30.90;99.90;;;;;;4944724;28;20233;-72
2022/07/01 09:33:29;;;;;;;4.18;1.70;;;31.00;99.90;;;;;;4946364;28;20751;-72
2022/07/01 09:35:57;;;;;;;4.43;1.85;;;31.00;99.90;;;;;;4959978;28;20191;-73
2022/07/01 09:38:26;;;;;;;3.40;1.70;;;31.10;99.90;;;;;;4956474;28;20187;-70
2022/07/01 09:40:58;;;;;;;4.57;1.58;;;31.20;99.70;;;;;;4944644;28;20190;-70
2022/07/01 09:43:33;;;;;;;4.70;1.85;;;31.30;99.40;;;;;;4943816;28;20246;-71
2022/07/01 09:46:07;;;;;;;2.67;1.60;;;31.30;99.30;;;;;;4960166;28;20265;-71
2022/07/01 09:48:33;;;;;;;3.78;1.50;;;31.30;99.10;;;;;;4959967;28;20209;-71
2022/07/01 09:51:01;;;;;;;2.72;1.60;;;31.40;99.10;;;;;;4946337;28;20591;-71
2022/07/01 09:53:28;;;;;;;3.50;1.60;;;31.50;99.10;;;;;;4942405;28;20187;-71
2022/07/01 09:55:54;;;;;;;2.10;1.52;;;31.60;99.00;;;;;;4949512;28;20186;-74
2022/07/01 09:58:21;;;;;;;5.55;1.55;;;31.60;99.10;;;;;;4942984;28;21606;-72
2022/07/01 10:00:48;;;;;;;3.45;1.65;;;31.70;98.40;;;;;;4957322;28;20726;-71
2022/07/01 10:03:18;;;;;;;6.43;1.67;;;31.60;98.50;;;;;;4951112;28;20203;-70
2022/07/01 10:06:10;;;;;;;7.10;1.52;;;31.60;98.20;;;;;;4943509;28;20458;-72
2022/07/01 10:09:16;;;;;;;5.20;1.65;;;31.60;98.20;;;;;;4944886;28;20656;-72
2022/07/01 10:11:42;;;;;;;10.38;1.75;;;31.70;98.40;;;;;;4943659;28;20549;-71
2022/07/01 10:14:12;;;;;;;3.15;1.55;;;31.80;97.30;;;;;;4957690;28;20198;-70
2022/07/01 10:16:40;;;;;;;3.05;1.45;;;31.80;97.50;;;;;;4943395;28;20615;-70
2022/07/01 10:19:35;;;;;;;2.90;1.70;;;31.80;96.90;;;;;;4943797;28;20201;-73
2022/07/01 10:22:27;;;;;;;4.60;1.50;;;31.70;97.40;;;;;;4950857;28;20194;-72
2022/07/01 10:24:56;;;;;;;5.05;1.55;;;31.90;97.30;;;;;;4942752;28;20191;-72
2022/07/01 10:27:25;;;;;;;4.25;1.45;;;31.70;96.90;;;;;;4957754;28;20206;-73
2022/07/01 10:30:16;;;;;;;2.40;1.45;;;31.60;96.90;;;;;;4958329;28;20210;-71
2022/07/01 10:32:49;;;;;;;3.22;1.40;;;31.90;96.70;;;;;;4958400;28;20226;-70
2022/07/01 10:35:15;;;;;;;4.50;1.60;;;31.90;96.30;;;;;;4935319;28;20221;-72
2022/07/01 10:38:03;;;;;;;3.88;1.50;;;31.70;96.10;;;;;;4940141;28;20213;-69
2022/07/01 10:40:46;;;;;;;2.38;1.50;;;31.70;96.80;;;;;;4935681;28;20529;-71
2022/07/01 10:43:33;;;;;;;2.75;1.40;;;31.90;97.30;;;;;;4944518;28;20187;-71
2022/07/01 10:45:59;;;;;;;2.55;1.50;;;31.90;97.60;;;;;;4950012;28;20187;-73
2022/07/01 10:48:28;;;;;;;3.90;1.50;;;32.00;97.60;;;;;;4954052;28;20715;-71
2022/07/01 10:50:54;;;;;;;2.28;1.67;;;32.00;97.00;;;;;;4949187;28;20286;-71
2022/07/01 10:53:21;;;;;;;4.13;1.60;;;32.00;96.50;;;;;;4943873;29;20187;-71
2022/07/01 10:55:53;;;;;;;5.25;1.95;;;31.90;96.70;;;;;;4946163;28;20187;-72
2022/07/01 10:58:37;;;;;;;5.20;1.40;;;31.80;96.60;;;;;;4948430;29;20265;-70
2022/07/01 11:01:04;;;;;;;5.47;1.73;;;31.90;96.80;;;;;;4961083;28;20222;-71
2022/07/01 11:03:39;;;;;;;6.55;2.13;;;31.90;96.70;;;;;;4962582;28;20195;-73
2022/07/01 11:06:07;;;;;;;3.22;1.80;;;32.00;97.10;;;;;;4961210;28;20197;-70
2022/07/01 11:08:33;;;;;;;3.65;1.63;;;32.00;97.10;;;;;;4948037;28;20257;-71
2022/07/01 11:11:04;;;;;;;2.97;1.80;;;32.00;97.00;;;;;;4928897;28;20218;-73
2022/07/01 11:13:31;;;;;;;3.17;1.60;;;32.00;97.40;;;;;;4945845;28;20242;-73
2022/07/01 11:15:58;;;;;;;3.70;1.70;;;32.00;97.60;;;;;;4949534;28;20195;-70
2022/07/01 11:18:25;;;;;;;3.88;1.70;;;32.00;97.50;;;;;;4947954;28;20190;-70
2022/07/01 11:20:52;;;;;;;3.17;2.08;;;31.80;97.20;;;;;;4956256;28;20225;-71
2022/07/01 11:23:21;;;;;;;3.40;1.85;;;31.70;97.50;;;;;;4943303;28;20671;-72
2022/07/01 11:25:48;;;;;;;4.63;2.00;;;31.70;97.60;;;;;;4951797;28;20350;-70
2022/07/01 11:28:14;;;;;;;6.82;2.08;;;31.70;97.20;;;;;;4945467;28;20237;-71
2022/07/01 11:30:41;;;;;;;3.42;1.70;;;31.70;97.10;;;;;;4960187;28;20242;-72
2022/07/01 11:33:10;;;;;;;4.60;1.60;;;31.70;96.70;;;;;;4962082;28;20512;-73
2022/07/01 11:41:25;;;;;;;2.60;1.55;;;31.80;96.20;;;;;;4945301;28;20652;-71
2022/07/01 11:43:52;;;;;;;2.13;1.45;;;31.80;96.40;;;;;;4945047;28;20194;-71
2022/07/01 11:46:18;;;;;;;4.38;1.85;;;31.90;96.70;;;;;;4942442;28;20655;-71
2022/07/01 11:48:51;;;;;;;4.68;1.70;;;31.90;96.20;;;;;;4947331;28;20201;-71
2022/07/01 11:51:23;;;;;;;2.78;1.50;;;31.80;96.00;;;;;;4944043;28;20241;-70
2022/07/01 11:53:54;;;;;;;2.83;1.50;;;31.70;96.00;;;;;;4942980;28;20257;-71
2022/07/01 11:56:39;;;;;;;2.60;1.80;;;31.70;96.40;;;;;;4944216;28;20214;-71
2022/07/01 11:59:05;;;;;;;3.15;1.80;;;31.70;95.80;;;;;;4945133;28;20214;-70
2022/07/01 12:01:35;;;;;;;7.40;1.58;;;31.70;96.20;;;;;;4944566;29;20198;-71
2022/07/01 12:04:05;;;;;;;6.43;1.90;;;31.70;96.30;;;;;;4946747;28;20193;-70
2022/07/01 12:06:33;;;;;;;5.78;2.00;;;31.70;96.40;;;;;;4944870;28;20537;-72
2022/07/01 12:09:01;;;;;;;3.22;1.70;;;31.60;96.50;;;;;;4946061;28;20187;-73
2022/07/01 12:11:29;;;;;;;3.72;1.95;;;31.60;96.10;;;;;;4929926;29;20299;-70
2022/07/01 12:13:57;;;;;;;5.57;1.80;;;31.70;96.70;;;;;;4961135;28;20210;-71
2022/07/01 12:16:24;;;;;;;4.45;1.90;;;31.70;96.20;;;;;;4948592;28;20217;-72
2022/07/01 12:19:03;;;;;;;3.35;1.83;;;31.70;96.10;;;;;;4949324;28;20191;-73
2022/07/01 12:21:30;;;;;;;5.30;2.05;;;31.70;97.00;;;;;;4947662;28;20192;-70
2022/07/01 12:24:12;;;;;;;3.17;1.88;;;31.70;97.30;;;;;;4963466;28;20667;-72
2022/07/01 12:26:58;;;;;;;2.88;1.92;;;31.60;97.00;;;;;;4944967;28;20199;-71
2022/07/01 12:29:29;;;;;;;3.92;2.05;;;31.40;96.80;;;;;;4946960;28;20202;-70
2022/07/01 12:32:06;;;;;;;4.75;2.22;;;31.30;97.40;;;;;;4947608;28;20281;-72
2022/07/01 12:34:47;;;;;;;2.35;1.85;;;31.30;97.30;;;;;;4943521;28;20187;-72
2022/07/01 12:37:20;;;;;;;5.88;2.40;;;31.20;97.00;;;;;;4944111;28;20310;-71
2022/07/01 12:40:21;;;;;;;3.72;2.10;;;31.20;96.90;;;;;;4946687;28;20520;-72
2022/07/01 12:42:48;;;;;;;3.13;1.95;;;31.20;96.50;;;;;;4946849;28;20206;-71
2022/07/01 12:45:22;;;;;;;5.75;2.10;;;30.90;96.40;;;;;;4948169;29;20210;-72
2022/07/01 12:47:51;;;;;;;4.55;2.00;;;30.90;96.90;;;;;;4946154;29;20284;-72
2022/07/01 12:50:27;;;;;;;5.68;2.00;;;30.70;96.60;;;;;;4962479;28;20190;-70
2022/07/01 12:53:05;;;;;;;3.25;1.75;;;30.80;96.90;;;;;;4944826;29;20204;-70
2022/07/01 12:55:38;;;;;;;6.53;2.25;;;30.90;97.00;;;;;;4947747;29;20187;-72
2022/07/01 12:58:17;;;;;;;5.05;1.92;;;30.90;96.40;;;;;;4963586;28;20198;-73
2022/07/01 13:00:47;;;;;;;3.20;1.75;;;31.00;96.70;;;;;;4949480;28;21007;-72
2022/07/01 13:03:17;;;;;;;5.10;2.05;;;31.00;96.50;;;;;;4948606;28;20242;-72
2022/07/01 13:05:44;;;;;;;6.97;2.33;;;30.90;96.10;;;;;;4943455;28;20845;-71
2022/07/01 13:08:11;;;;;;;3.47;1.90;;;30.80;96.70;;;;;;4949364;28;21241;-72